Spring River (Missouri), Carthage (07185765)

StateMissouriCurrentPotential (368 cfs)
RiverSpring RiverFlood - The river is flooding. Obstacles can be treacherous or deadly. The river should be avoided at this stage for casual trips and definitely for the inexperienced. Trips should be attempted only with protective gear and equipment.Flood(none)
Updated2019-10-14 2:45 (1 hour ago)High - The river is high and potentially dangerous, especially for the young and / or inexperienced. Normal stream obstacles are sometimes difficult to navigate. Extended distances can be attempted, but canoe travel may not be advisable.High(none)
Discharge368 cfs (median: 128 cfs)Good - Conditions are ideal for a canoe or kayak. Boats typically will drag on fewer than one-quarter of riffles, if at all, and portages are unnecessary or rare. Normal float lengths can be attempted without a problem.Good(none)
Height3.7 feetLow - River is low but can still be floated. Some riffles are okay but most come with significant dragging and might need a portage. Float lengths should be reduced to accommodate low flow, dragging, and portages.Low(none)
TrendFalling (falling over 24 hours)Poor - River is too low to float comfortably. Most or all riffles will drag or must be portaged and some obstacles (such as slick shelf rock) cause undue problems. Avoid the river at this stage for casual paddling trips.Poor(none)
USGSExternal icon USGS Site for Carthage (07185765)LocationExternal icon Google Maps

Trending Data

Plot Image
ObservationHeightDischargeMaximum
Discharge
Minimum
Discharge
Mean
Discharge
P05P10P20P25P50
(Median)
P75P80P90P95
2019-10-14 02:45 3.70 368 1380 (2010) 25 (2007) 224 30 42 70 76 128 230 284 705 1020
2019-10-14 01:45 3.71 373 1380 (2010) 25 (2007) 224 30 42 70 76 128 230 284 705 1020
2019-10-14 00:45 3.71 373 1380 (2010) 25 (2007) 224 30 42 70 76 128 230 284 705 1020
2019-10-13 23:45 3.72 377 2200 (1970) 25 (2007) 278 30 41 70 78 119 223 280 1040 1730
2019-10-13 22:45 3.73 382 2200 (1970) 25 (2007) 278 30 41 70 78 119 223 280 1040 1730
2019-10-13 21:45 3.73 382 2200 (1970) 25 (2007) 278 30 41 70 78 119 223 280 1040 1730
2019-10-13 20:45 3.74 387 2200 (1970) 25 (2007) 278 30 41 70 78 119 223 280 1040 1730
2019-10-13 19:45 3.74 387 2200 (1970) 25 (2007) 278 30 41 70 78 119 223 280 1040 1730
2019-10-13 18:45 3.74 387 2200 (1970) 25 (2007) 278 30 41 70 78 119 223 280 1040 1730
2019-10-13 17:45 3.76 396 2200 (1970) 25 (2007) 278 30 41 70 78 119 223 280 1040 1730
2019-10-13 16:45 3.76 396 2200 (1970) 25 (2007) 278 30 41 70 78 119 223 280 1040 1730
2019-10-13 15:45 3.77 400 2200 (1970) 25 (2007) 278 30 41 70 78 119 223 280 1040 1730
2019-10-13 14:45 3.78 405 2200 (1970) 25 (2007) 278 30 41 70 78 119 223 280 1040 1730
2019-10-13 13:45 3.79 410 2200 (1970) 25 (2007) 278 30 41 70 78 119 223 280 1040 1730
2019-10-13 12:45 3.79 410 2200 (1970) 25 (2007) 278 30 41 70 78 119 223 280 1040 1730
2019-10-13 11:45 3.80 415 2200 (1970) 25 (2007) 278 30 41 70 78 119 223 280 1040 1730
2019-10-13 10:45 3.81 419 2200 (1970) 25 (2007) 278 30 41 70 78 119 223 280 1040 1730
2019-10-13 09:45 3.82 424 2200 (1970) 25 (2007) 278 30 41 70 78 119 223 280 1040 1730
2019-10-13 08:45 3.83 429 2200 (1970) 25 (2007) 278 30 41 70 78 119 223 280 1040 1730
2019-10-13 07:45 3.84 434 2200 (1970) 25 (2007) 278 30 41 70 78 119 223 280 1040 1730
2019-10-13 06:45 3.86 444 2200 (1970) 25 (2007) 278 30 41 70 78 119 223 280 1040 1730
2019-10-13 05:45 3.87 449 2200 (1970) 25 (2007) 278 30 41 70 78 119 223 280 1040 1730
2019-10-13 04:45 3.87 449 2200 (1970) 25 (2007) 278 30 41 70 78 119 223 280 1040 1730
2019-10-13 03:45 3.90 464 2200 (1970) 25 (2007) 278 30 41 70 78 119 223 280 1040 1730
2019-10-13 02:45 3.91 469 2200 (1970) 25 (2007) 278 30 41 70 78 119 223 280 1040 1730
2019-10-13 01:45 3.92 475 2200 (1970) 25 (2007) 278 30 41 70 78 119 223 280 1040 1730
2019-10-13 00:45 3.94 485 2200 (1970) 25 (2007) 278 30 41 70 78 119 223 280 1040 1730
2019-10-12 23:45 3.95 490 2250 (1970) 25 (2007) 265 30 44 69 74 121 222 303 435 1940
2019-10-12 22:45 3.98 506 2250 (1970) 25 (2007) 265 30 44 69 74 121 222 303 435 1940
2019-10-12 21:45 3.99 512 2250 (1970) 25 (2007) 265 30 44 69 74 121 222 303 435 1940
2019-10-12 20:45 4.01 523 2250 (1970) 25 (2007) 265 30 44 69 74 121 222 303 435 1940
2019-10-12 19:45 4.04 542 2250 (1970) 25 (2007) 265 30 44 69 74 121 222 303 435 1940
2019-10-12 18:45 4.07 555 2250 (1970) 25 (2007) 265 30 44 69 74 121 222 303 435 1940
2019-10-12 17:45 4.10 576 2250 (1970) 25 (2007) 265 30 44 69 74 121 222 303 435 1940
2019-10-12 16:45 4.13 597 2250 (1970) 25 (2007) 265 30 44 69 74 121 222 303 435 1940
2019-10-12 15:45 4.16 619 2250 (1970) 25 (2007) 265 30 44 69 74 121 222 303 435 1940
2019-10-12 14:45 4.21 648 2250 (1970) 25 (2007) 265 30 44 69 74 121 222 303 435 1940
2019-10-12 13:45 4.24 670 2250 (1970) 25 (2007) 265 30 44 69 74 121 222 303 435 1940
2019-10-12 12:45 4.26 685 2250 (1970) 25 (2007) 265 30 44 69 74 121 222 303 435 1940
2019-10-12 11:45 4.31 715 2250 (1970) 25 (2007) 265 30 44 69 74 121 222 303 435 1940
2019-10-12 10:45 4.35 744 2250 (1970) 25 (2007) 265 30 44 69 74 121 222 303 435 1940
2019-10-12 09:45 4.35 744 2250 (1970) 25 (2007) 265 30 44 69 74 121 222 303 435 1940
2019-10-12 08:45 4.38 766 2250 (1970) 25 (2007) 265 30 44 69 74 121 222 303 435 1940
2019-10-12 07:45 4.38 766 2250 (1970) 25 (2007) 265 30 44 69 74 121 222 303 435 1940
2019-10-12 06:45 4.37 759 2250 (1970) 25 (2007) 265 30 44 69 74 121 222 303 435 1940
2019-10-12 05:45 4.35 744 2250 (1970) 25 (2007) 265 30 44 69 74 121 222 303 435 1940
2019-10-12 04:45 4.29 700 2250 (1970) 25 (2007) 265 30 44 69 74 121 222 303 435 1940
2019-10-12 03:45 4.24 670 2250 (1970) 25 (2007) 265 30 44 69 74 121 222 303 435 1940
2019-10-12 02:45 4.15 612 2250 (1970) 25 (2007) 265 30 44 69 74 121 222 303 435 1940
2019-10-12 01:45 4.07 555 2250 (1970) 25 (2007) 265 30 44 69 74 121 222 303 435 1940
2019-10-12 00:45 3.96 496 2250 (1970) 25 (2007) 265 30 44 69 74 121 222 303 435 1940
2019-10-11 23:45 3.89 459 3760 (2010) 27 (2007) 296 31 40 60 64 115 206 287 431 2280
2019-10-11 22:45 3.82 424 3760 (2010) 27 (2007) 296 31 40 60 64 115 206 287 431 2280
2019-10-11 21:45 3.77 400 3760 (2010) 27 (2007) 296 31 40 60 64 115 206 287 431 2280
2019-10-11 20:45 3.71 373 3760 (2010) 27 (2007) 296 31 40 60 64 115 206 287 431 2280
2019-10-11 19:45 3.65 347 3760 (2010) 27 (2007) 296 31 40 60 64 115 206 287 431 2280
2019-10-11 18:45 3.61 330 3760 (2010) 27 (2007) 296 31 40 60 64 115 206 287 431 2280
2019-10-11 17:45 3.56 310 3760 (2010) 27 (2007) 296 31 40 60 64 115 206 287 431 2280
2019-10-11 16:45 3.51 290 3760 (2010) 27 (2007) 296 31 40 60 64 115 206 287 431 2280
2019-10-11 15:45 3.45 268 3760 (2010) 27 (2007) 296 31 40 60 64 115 206 287 431 2280
2019-10-11 14:45 3.41 254 3760 (2010) 27 (2007) 296 31 40 60 64 115 206 287 431 2280
2019-10-11 13:45 3.36 236 3760 (2010) 27 (2007) 296 31 40 60 64 115 206 287 431 2280
2019-10-11 12:45 3.32 223 3760 (2010) 27 (2007) 296 31 40 60 64 115 206 287 431 2280
2019-10-11 11:45 3.29 214 3760 (2010) 27 (2007) 296 31 40 60 64 115 206 287 431 2280
2019-10-11 10:45 3.27 208 3760 (2010) 27 (2007) 296 31 40 60 64 115 206 287 431 2280
2019-10-11 09:45 3.26 204 3760 (2010) 27 (2007) 296 31 40 60 64 115 206 287 431 2280
2019-10-11 08:45 3.24 198 3760 (2010) 27 (2007) 296 31 40 60 64 115 206 287 431 2280
2019-10-11 07:45 3.22 192 3760 (2010) 27 (2007) 296 31 40 60 64 115 206 287 431 2280
2019-10-11 06:45 3.19 184 3760 (2010) 27 (2007) 296 31 40 60 64 115 206 287 431 2280
2019-10-11 05:45 3.17 178 3760 (2010) 27 (2007) 296 31 40 60 64 115 206 287 431 2280
2019-10-11 04:45 3.17 178 3760 (2010) 27 (2007) 296 31 40 60 64 115 206 287 431 2280
2019-10-11 03:45 3.19 184 3760 (2010) 27 (2007) 296 31 40 60 64 115 206 287 431 2280
2019-10-11 02:45 3.12 164 3760 (2010) 27 (2007) 296 31 40 60 64 115 206 287 431 2280
2019-10-11 01:45 3.11 162 3760 (2010) 27 (2007) 296 31 40 60 64 115 206 287 431 2280
2019-10-11 00:45 3.11 162 3760 (2010) 27 (2007) 296 31 40 60 64 115 206 287 431 2280
2019-10-10 23:45 3.13 167 15900 (2010) 23 (2007) 730 30 38 58 66 117 195 254 636 7440
2019-10-10 22:45 3.10 159 15900 (2010) 23 (2007) 730 30 38 58 66 117 195 254 636 7440
2019-10-10 21:45 3.10 159 15900 (2010) 23 (2007) 730 30 38 58 66 117 195 254 636 7440
2019-10-10 20:45 3.10 159 15900 (2010) 23 (2007) 730 30 38 58 66 117 195 254 636 7440
2019-10-10 19:45 3.10 159 15900 (2010) 23 (2007) 730 30 38 58 66 117 195 254 636 7440
2019-10-10 18:45 3.11 162 15900 (2010) 23 (2007) 730 30 38 58 66 117 195 254 636 7440
2019-10-10 17:45 3.12 164 15900 (2010) 23 (2007) 730 30 38 58 66 117 195 254 636 7440
2019-10-10 16:45 3.13 167 15900 (2010) 23 (2007) 730 30 38 58 66 117 195 254 636 7440
2019-10-10 15:45 3.14 170 15900 (2010) 23 (2007) 730 30 38 58 66 117 195 254 636 7440
2019-10-10 14:45 3.14 170 15900 (2010) 23 (2007) 730 30 38 58 66 117 195 254 636 7440
2019-10-10 13:45 3.15 173 15900 (2010) 23 (2007) 730 30 38 58 66 117 195 254 636 7440
2019-10-10 12:45 3.13 167 15900 (2010) 23 (2007) 730 30 38 58 66 117 195 254 636 7440
2019-10-10 11:45 3.11 162 15900 (2010) 23 (2007) 730 30 38 58 66 117 195 254 636 7440
2019-10-10 10:45 3.08 154 15900 (2010) 23 (2007) 730 30 38 58 66 117 195 254 636 7440
2019-10-10 09:45 3.05 147 15900 (2010) 23 (2007) 730 30 38 58 66 117 195 254 636 7440
2019-10-10 08:45 3.05 147 15900 (2010) 23 (2007) 730 30 38 58 66 117 195 254 636 7440
2019-10-10 07:45 3.05 147 15900 (2010) 23 (2007) 730 30 38 58 66 117 195 254 636 7440
2019-10-10 06:45 3.05 147 15900 (2010) 23 (2007) 730 30 38 58 66 117 195 254 636 7440
2019-10-10 05:45 3.05 147 15900 (2010) 23 (2007) 730 30 38 58 66 117 195 254 636 7440
2019-10-10 04:45 3.05 147 15900 (2010) 23 (2007) 730 30 38 58 66 117 195 254 636 7440
2019-10-10 03:45 3.05 147 15900 (2010) 23 (2007) 730 30 38 58 66 117 195 254 636 7440
2019-10-10 02:45 3.05 147 15900 (2010) 23 (2007) 730 30 38 58 66 117 195 254 636 7440
2019-10-10 01:45 3.05 147 15900 (2010) 23 (2007) 730 30 38 58 66 117 195 254 636 7440
2019-10-10 00:45 3.06 149 15900 (2010) 23 (2007) 730 30 38 58 66 117 195 254 636 7440
2019-10-09 23:45 3.05 147 12800 (2010) 23 (2007) 548 31 39 59 62 106 189 204 379 5150
2019-10-09 22:45 3.06 149 12800 (2010) 23 (2007) 548 31 39 59 62 106 189 204 379 5150
2019-10-09 21:45 3.06 149 12800 (2010) 23 (2007) 548 31 39 59 62 106 189 204 379 5150
2019-10-09 20:45 3.06 149 12800 (2010) 23 (2007) 548 31 39 59 62 106 189 204 379 5150
2019-10-09 19:45 3.06 149 12800 (2010) 23 (2007) 548 31 39 59 62 106 189 204 379 5150
2019-10-09 18:45 3.06 149 12800 (2010) 23 (2007) 548 31 39 59 62 106 189 204 379 5150
2019-10-09 17:45 3.07 152 12800 (2010) 23 (2007) 548 31 39 59 62 106 189 204 379 5150
2019-10-09 16:45 3.07 152 12800 (2010) 23 (2007) 548 31 39 59 62 106 189 204 379 5150
2019-10-09 15:45 3.07 152 12800 (2010) 23 (2007) 548 31 39 59 62 106 189 204 379 5150
2019-10-09 14:45 3.07 152 12800 (2010) 23 (2007) 548 31 39 59 62 106 189 204 379 5150
2019-10-09 13:45 3.07 152 12800 (2010) 23 (2007) 548 31 39 59 62 106 189 204 379 5150
2019-10-09 12:45 3.07 152 12800 (2010) 23 (2007) 548 31 39 59 62 106 189 204 379 5150
2019-10-09 11:45 3.07 152 12800 (2010) 23 (2007) 548 31 39 59 62 106 189 204 379 5150
2019-10-09 10:45 3.07 152 12800 (2010) 23 (2007) 548 31 39 59 62 106 189 204 379 5150
2019-10-09 09:45 3.07 152 12800 (2010) 23 (2007) 548 31 39 59 62 106 189 204 379 5150
2019-10-09 08:45 3.07 152 12800 (2010) 23 (2007) 548 31 39 59 62 106 189 204 379 5150
2019-10-09 07:45 3.08 154 12800 (2010) 23 (2007) 548 31 39 59 62 106 189 204 379 5150
2019-10-09 06:45 3.08 154 12800 (2010) 23 (2007) 548 31 39 59 62 106 189 204 379 5150
2019-10-09 05:45 3.08 154 12800 (2010) 23 (2007) 548 31 39 59 62 106 189 204 379 5150
2019-10-09 04:45 3.08 154 12800 (2010) 23 (2007) 548 31 39 59 62 106 189 204 379 5150
2019-10-09 03:45 3.08 154 12800 (2010) 23 (2007) 548 31 39 59 62 106 189 204 379 5150
2019-10-09 02:45 3.08 154 12800 (2010) 23 (2007) 548 31 39 59 62 106 189 204 379 5150
2019-10-09 01:45 3.09 157 12800 (2010) 23 (2007) 548 31 39 59 62 106 189 204 379 5150
2019-10-09 00:45 3.09 157 12800 (2010) 23 (2007) 548 31 39 59 62 106 189 204 379 5150
2019-10-08 23:45 3.09 157 760 (2010) 25 (2007) 149 32 41 55 62 101 171 205 339 545
2019-10-08 22:45 3.09 157 760 (2010) 25 (2007) 149 32 41 55 62 101 171 205 339 545
2019-10-08 21:45 3.09 157 760 (2010) 25 (2007) 149 32 41 55 62 101 171 205 339 545
2019-10-08 20:45 3.10 159 760 (2010) 25 (2007) 149 32 41 55 62 101 171 205 339 545
2019-10-08 19:45 3.10 159 760 (2010) 25 (2007) 149 32 41 55 62 101 171 205 339 545
2019-10-08 18:45 3.10 159 760 (2010) 25 (2007) 149 32 41 55 62 101 171 205 339 545
2019-10-08 17:45 3.10 159 760 (2010) 25 (2007) 149 32 41 55 62 101 171 205 339 545
2019-10-08 16:45 3.10 159 760 (2010) 25 (2007) 149 32 41 55 62 101 171 205 339 545
2019-10-08 15:45 3.10 159 760 (2010) 25 (2007) 149 32 41 55 62 101 171 205 339 545
2019-10-08 14:45 3.10 159 760 (2010) 25 (2007) 149 32 41 55 62 101 171 205 339 545
2019-10-08 13:45 3.10 159 760 (2010) 25 (2007) 149 32 41 55 62 101 171 205 339 545
2019-10-08 12:45 3.10 159 760 (2010) 25 (2007) 149 32 41 55 62 101 171 205 339 545
2019-10-08 11:45 3.10 159 760 (2010) 25 (2007) 149 32 41 55 62 101 171 205 339 545
2019-10-08 10:45 3.11 162 760 (2010) 25 (2007) 149 32 41 55 62 101 171 205 339 545
2019-10-08 09:45 3.11 162 760 (2010) 25 (2007) 149 32 41 55 62 101 171 205 339 545
2019-10-08 08:45 3.11 162 760 (2010) 25 (2007) 149 32 41 55 62 101 171 205 339 545
2019-10-08 07:45 3.11 162 760 (2010) 25 (2007) 149 32 41 55 62 101 171 205 339 545
2019-10-08 06:45 3.11 162 760 (2010) 25 (2007) 149 32 41 55 62 101 171 205 339 545
2019-10-08 05:45 3.11 162 760 (2010) 25 (2007) 149 32 41 55 62 101 171 205 339 545
2019-10-08 04:45 3.11 162 760 (2010) 25 (2007) 149 32 41 55 62 101 171 205 339 545
2019-10-08 03:45 3.11 162 760 (2010) 25 (2007) 149 32 41 55 62 101 171 205 339 545
2019-10-08 02:45 3.11 162 760 (2010) 25 (2007) 149 32 41 55 62 101 171 205 339 545
2019-10-08 01:45 3.11 162 760 (2010) 25 (2007) 149 32 41 55 62 101 171 205 339 545
2019-10-08 00:45 3.11 162 760 (2010) 25 (2007) 149 32 41 55 62 101 171 205 339 545
2019-10-07 23:45 3.11 162 746 (1968) 25 (2007) 154 33 42 56 62 107 163 202 373 552
2019-10-07 22:45 3.11 162 746 (1968) 25 (2007) 154 33 42 56 62 107 163 202 373 552
2019-10-07 21:45 3.10 159 746 (1968) 25 (2007) 154 33 42 56 62 107 163 202 373 552
2019-10-07 20:45 3.10 159 746 (1968) 25 (2007) 154 33 42 56 62 107 163 202 373 552
2019-10-07 19:45 3.09 157 746 (1968) 25 (2007) 154 33 42 56 62 107 163 202 373 552
2019-10-07 18:45 3.08 154 746 (1968) 25 (2007) 154 33 42 56 62 107 163 202 373 552
2019-10-07 17:45 3.08 154 746 (1968) 25 (2007) 154 33 42 56 62 107 163 202 373 552
2019-10-07 16:45 3.07 152 746 (1968) 25 (2007) 154 33 42 56 62 107 163 202 373 552
2019-10-07 15:45 3.07 152 746 (1968) 25 (2007) 154 33 42 56 62 107 163 202 373 552
2019-10-07 14:45 3.06 149 746 (1968) 25 (2007) 154 33 42 56 62 107 163 202 373 552
2019-10-07 13:45 3.06 149 746 (1968) 25 (2007) 154 33 42 56 62 107 163 202 373 552
2019-10-07 12:45 3.06 149 746 (1968) 25 (2007) 154 33 42 56 62 107 163 202 373 552
2019-10-07 11:45 3.06 149 746 (1968) 25 (2007) 154 33 42 56 62 107 163 202 373 552
2019-10-07 10:45 3.06 149 746 (1968) 25 (2007) 154 33 42 56 62 107 163 202 373 552
2019-10-07 09:45 3.07 152 746 (1968) 25 (2007) 154 33 42 56 62 107 163 202 373 552
2019-10-07 08:45 3.07 152 746 (1968) 25 (2007) 154 33 42 56 62 107 163 202 373 552
2019-10-07 07:45 3.07 152 746 (1968) 25 (2007) 154 33 42 56 62 107 163 202 373 552
2019-10-07 06:45 3.07 152 746 (1968) 25 (2007) 154 33 42 56 62 107 163 202 373 552
2019-10-07 05:45 3.07 152 746 (1968) 25 (2007) 154 33 42 56 62 107 163 202 373 552
2019-10-07 04:45 3.06 149 746 (1968) 25 (2007) 154 33 42 56 62 107 163 202 373 552
2019-10-07 03:45 3.06 149 746 (1968) 25 (2007) 154 33 42 56 62 107 163 202 373 552
2019-10-07 02:45 3.06 149 746 (1968) 25 (2007) 154 33 42 56 62 107 163 202 373 552
2019-10-07 01:45 3.06 149 746 (1968) 25 (2007) 154 33 42 56 62 107 163 202 373 552
2019-10-07 00:45 3.06 149 746 (1968) 25 (2007) 154 33 42 56 62 107 163 202 373 552

A total of 171 rows are displayed for years 1967 through 2018.

Trips for Spring River (Missouri), Carthage (07185765)

DateStartEndDistanceConditionDischargeHeightFishingDetails

A total of 0 rows are displayed.

Condition Descriptions

Fishing Conditions

Fish Species

Notes

Classic Trip List

The classic River Trips application is still available for use. It is updated with the new system using a data retrofit. It is no longer maintained. The original River Trips application is no longer updated (as of 1 Dec 2016) but can be checked for errors or for the condition of the data before it was converted to the new system.